createdAt,value
2018-04-02T00:02:12.288Z,44.20
2018-04-02T00:04:38.317Z,46.03
2018-04-02T00:07:04.320Z,41.30
2018-04-02T00:09:30.356Z,36.20
2018-04-02T00:11:56.492Z,41.90
2018-04-02T00:14:22.549Z,36.88
2018-04-02T09:51:05.577Z,28.08
2018-04-02T09:53:31.675Z,37.50
2018-04-02T09:55:57.858Z,39.83
2018-04-02T09:58:24.178Z,36.72
2018-04-02T10:00:50.415Z,29.12
2018-04-02T10:03:16.592Z,28.27
2018-04-02T10:05:42.618Z,28.27
2018-04-02T10:08:08.720Z,24.60
2018-04-02T10:10:34.985Z,24.05
2018-04-02T10:13:01.998Z,20.80
2018-04-02T10:15:28.340Z,23.60
2018-04-02T10:17:54.439Z,21.42
2018-04-02T10:20:20.531Z,23.92
2018-04-02T10:22:46.792Z,21.08
2018-04-02T10:25:12.879Z,21.08
2018-04-02T10:27:38.881Z,21.80
2018-04-02T10:30:04.910Z,24.15
2018-04-02T10:32:30.934Z,27.48
2018-04-02T10:34:57.010Z,20.37
2018-04-02T10:37:23.027Z,29.63
2018-04-02T10:39:49.254Z,22.52
2018-04-02T10:42:15.582Z,23.25
2018-04-02T10:44:41.940Z,20.35
2018-04-02T10:47:08.078Z,20.37
2018-04-02T10:49:34.251Z,22.37
2018-04-02T10:52:00.337Z,21.15
2018-04-02T10:54:26.363Z,19.37
2018-04-02T10:56:52.443Z,21.05
2018-04-02T10:59:18.670Z,25.10
2018-04-02T11:01:44.733Z,21.85
2018-04-02T11:04:10.805Z,21.23
2018-04-02T11:06:36.881Z,25.48
2018-04-02T11:09:02.986Z,20.48
2018-04-02T11:11:29.024Z,23.42
2018-04-02T11:13:55.074Z,24.15
2018-04-02T11:16:21.161Z,22.33
2018-04-02T11:18:47.208Z,25.67
2018-04-02T11:21:13.368Z,19.67
2018-04-02T11:23:39.601Z,19.30
2018-04-02T11:26:05.683Z,18.20
2018-04-02T11:28:31.776Z,20.27
2018-04-02T11:30:57.968Z,22.13
2018-04-02T11:33:24.104Z,18.58
2018-04-02T11:35:50.660Z,18.00
2018-04-02T11:38:17.127Z,20.10
2018-04-02T11:40:43.306Z,18.62
2018-04-02T11:43:09.348Z,16.58
2018-04-02T11:45:35.360Z,18.52
2018-04-02T11:48:01.408Z,16.73
2018-04-02T11:50:27.583Z,15.98
2018-04-02T11:52:53.769Z,14.30
2018-04-02T11:55:19.827Z,14.98
2018-04-02T11:57:45.922Z,17.08
2018-04-02T12:00:12.072Z,15.25
2018-04-02T12:02:38.249Z,19.37
2018-04-02T12:05:04.362Z,13.77
2018-04-02T12:07:30.397Z,15.65
2018-04-02T12:09:56.475Z,14.00
2018-04-02T12:12:22.553Z,15.45
2018-04-02T12:14:48.628Z,14.73
2018-04-02T12:17:14.661Z,13.18
2018-04-02T12:19:40.705Z,12.82
2018-04-02T12:22:06.799Z,13.32
2018-04-02T12:24:32.807Z,12.85
2018-04-02T12:26:58.879Z,11.60
2018-04-02T12:29:24.894Z,11.68
2018-04-02T12:31:50.976Z,13.32
2018-04-02T12:34:17.000Z,13.13
2018-04-02T12:36:43.009Z,11.60
2018-04-02T12:39:09.089Z,11.27
2018-04-02T12:41:35.160Z,12.15
2018-04-02T12:44:01.182Z,10.82
2018-04-02T12:46:27.231Z,10.55
2018-04-02T12:48:53.273Z,11.35
2018-04-02T12:51:19.354Z,10.48
2018-04-02T12:53:52.407Z,10.70
2018-04-02T12:56:18.474Z,11.30
2018-04-02T12:58:44.487Z,12.60
2018-04-02T13:01:10.526Z,9.35
2018-04-02T13:03:36.605Z,9.05
2018-04-02T13:06:02.657Z,10.00
2018-04-02T13:08:28.658Z,11.63
2018-04-02T13:10:54.797Z,10.27
2018-04-02T13:13:20.825Z,10.77
2018-04-02T13:15:46.937Z,9.38
2018-04-02T13:18:12.995Z,8.25
2018-04-02T13:20:38.996Z,9.98
2018-04-02T13:23:05.044Z,8.32
2018-04-02T13:25:31.472Z,10.48
2018-04-02T13:27:57.655Z,10.43
2018-04-02T13:30:23.796Z,8.23
2018-04-02T13:32:49.983Z,9.20
2018-04-02T13:35:15.981Z,9.45
2018-04-02T13:37:42.068Z,7.70
2018-04-02T13:40:08.795Z,9.05
2018-04-02T13:42:34.808Z,8.07
2018-04-02T13:45:00.849Z,9.13
2018-04-02T13:47:26.898Z,8.95
2018-04-02T13:49:52.906Z,10.53
2018-04-02T13:52:18.935Z,8.13
2018-04-02T13:54:45.147Z,7.17
2018-04-02T13:57:11.132Z,9.97
2018-04-02T13:59:37.215Z,6.67
2018-04-02T14:02:03.284Z,8.37
2018-04-02T14:04:29.296Z,6.20
2018-04-02T14:06:55.363Z,5.50
2018-04-02T14:09:21.501Z,7.23
2018-04-02T14:11:47.513Z,6.37
2018-04-02T14:14:13.546Z,5.57
2018-04-02T14:16:39.637Z,5.60
2018-04-02T14:19:05.773Z,6.57
2018-04-02T14:21:32.043Z,5.43
2018-04-02T14:23:58.066Z,5.17
2018-04-02T14:26:24.105Z,4.73
2018-04-02T14:28:50.237Z,6.77
2018-04-02T14:31:16.307Z,6.90
2018-04-02T14:33:42.325Z,7.33
2018-04-02T14:36:08.385Z,5.10
2018-04-02T14:38:34.559Z,5.73
2018-04-02T14:41:00.602Z,7.00
2018-04-02T14:43:26.630Z,4.67
2018-04-02T14:45:52.668Z,5.30
2018-04-02T14:48:18.743Z,5.27
2018-04-02T14:50:44.850Z,4.53
2018-04-02T14:53:10.910Z,6.13
2018-04-02T14:55:36.935Z,5.30
2018-04-02T14:58:02.923Z,4.47
2018-04-02T15:00:29.004Z,7.43
2018-04-02T15:02:55.026Z,5.00
2018-04-02T15:05:21.090Z,5.73
2018-04-02T15:07:47.145Z,4.33
2018-04-02T15:10:13.207Z,6.03
2018-04-02T15:12:39.222Z,5.90
2018-04-02T15:15:05.257Z,7.47
2018-04-02T15:17:31.263Z,6.17
2018-04-02T15:19:57.327Z,4.80
2018-04-02T15:22:23.492Z,7.90
2018-04-02T15:24:49.517Z,4.73
2018-04-02T15:27:15.535Z,4.70
2018-04-02T15:29:41.597Z,5.10
2018-04-02T15:32:07.662Z,5.77
2018-04-02T15:34:33.690Z,6.43
2018-04-02T15:36:59.682Z,4.73
2018-04-02T15:39:25.930Z,5.55
2018-04-02T15:41:52.087Z,7.07
2018-04-02T15:44:18.213Z,4.90
2018-04-02T15:46:44.218Z,5.10
2018-04-02T15:49:10.304Z,5.37
2018-04-02T15:51:36.382Z,4.67
2018-04-02T15:54:02.414Z,5.93
2018-04-02T15:56:28.480Z,5.27
2018-04-02T15:58:54.524Z,5.97
2018-04-02T16:01:20.632Z,4.67
2018-04-02T16:03:46.716Z,4.90
2018-04-02T16:06:12.762Z,5.83
2018-04-02T16:08:38.821Z,4.53
2018-04-02T16:11:04.868Z,3.93
2018-04-02T16:13:30.927Z,5.43
2018-04-02T16:15:56.968Z,4.50
2018-04-02T16:18:23.063Z,5.10
2018-04-02T16:20:49.094Z,4.87
2018-04-02T16:23:15.213Z,4.40
2018-04-02T16:25:41.236Z,4.50
2018-04-02T16:28:07.898Z,4.20
2018-04-02T16:30:33.914Z,5.10
2018-04-02T16:33:00.296Z,5.50
2018-04-02T16:35:26.350Z,5.60
2018-04-02T16:37:52.355Z,4.17
2018-04-02T16:40:18.468Z,4.20
2018-04-02T16:42:44.566Z,4.40
2018-04-02T16:45:10.717Z,3.97
2018-04-02T16:47:36.731Z,4.00
2018-04-02T16:50:02.809Z,3.50
2018-04-02T16:52:28.846Z,3.23
2018-04-02T16:54:54.868Z,4.87
2018-04-02T16:57:20.912Z,3.87
2018-04-02T16:59:46.954Z,3.20
2018-04-02T17:02:13.037Z,3.13
2018-04-02T17:04:39.093Z,3.87
2018-04-02T17:07:05.180Z,3.90
2018-04-02T17:09:31.187Z,4.33
2018-04-02T17:11:57.312Z,3.40
2018-04-02T17:14:23.350Z,4.23
2018-04-02T17:16:49.421Z,3.50
2018-04-02T17:19:15.457Z,3.43
2018-04-02T17:21:41.542Z,4.33
2018-04-02T17:24:07.558Z,3.30
2018-04-02T17:26:33.585Z,3.60
2018-04-02T17:28:59.570Z,3.30
2018-04-02T17:31:25.648Z,3.47
2018-04-02T17:33:51.821Z,4.93
2018-04-02T17:36:17.956Z,4.70
2018-04-02T17:38:44.068Z,4.97
2018-04-02T17:41:10.116Z,3.27
2018-04-02T17:43:36.287Z,4.03
2018-04-02T17:46:02.376Z,4.05
2018-04-02T17:48:28.420Z,3.92
2018-04-02T17:50:54.435Z,5.17
2018-04-02T17:53:20.607Z,3.85
2018-04-02T17:55:46.655Z,3.50
2018-04-02T17:58:12.686Z,8.18
2018-04-02T18:00:38.766Z,7.57
2018-04-02T18:03:05.227Z,5.28
2018-04-02T18:05:31.271Z,4.32
2018-04-02T18:07:57.308Z,5.32
2018-04-02T18:10:23.354Z,7.30
2018-04-02T18:12:49.534Z,5.55
2018-04-02T18:15:15.734Z,5.43
2018-04-02T18:17:41.802Z,6.75
2018-04-02T18:20:07.823Z,7.22
2018-04-02T18:22:33.983Z,4.32
2018-04-02T18:25:00.558Z,4.60
2018-04-02T18:27:26.658Z,4.75
2018-04-02T18:29:52.692Z,6.15
2018-04-02T18:32:18.768Z,5.22
2018-04-02T18:34:44.904Z,8.23
2018-04-02T18:37:10.992Z,6.18
2018-04-02T18:39:37.059Z,6.78
2018-04-02T18:42:03.079Z,5.85
2018-04-02T18:44:29.162Z,6.12
2018-04-02T18:46:55.251Z,6.32
2018-04-02T18:49:21.299Z,3.90
2018-04-02T18:51:47.341Z,4.45
2018-04-02T18:54:13.374Z,5.85
2018-04-02T18:56:39.452Z,5.68
2018-04-02T18:59:05.510Z,4.85
2018-04-02T19:01:31.628Z,6.32
2018-04-02T19:03:57.633Z,4.72
2018-04-02T19:06:24.542Z,5.32
2018-04-02T19:08:50.646Z,5.10
2018-04-02T19:11:16.728Z,6.82
2018-04-02T19:13:42.790Z,5.72
2018-04-02T19:16:08.846Z,9.13
2018-04-02T19:18:34.866Z,7.75
2018-04-02T19:21:01.237Z,4.70
2018-04-02T19:23:27.315Z,6.47
2018-04-02T19:25:53.340Z,8.88
2018-04-02T19:28:19.455Z,8.73
2018-04-02T19:30:45.472Z,6.03
2018-04-02T19:33:11.592Z,5.95
2018-04-02T19:35:37.718Z,7.90
2018-04-02T19:38:03.779Z,6.85
2018-04-02T19:40:29.852Z,6.78
2018-04-02T19:42:55.965Z,6.90
2018-04-02T19:45:22.079Z,8.95
2018-04-02T19:47:48.223Z,9.05
2018-04-02T19:50:14.322Z,7.65
2018-04-02T19:52:40.470Z,9.02
2018-04-02T19:55:06.525Z,8.95
2018-04-02T19:57:32.660Z,10.95
2018-04-02T19:59:58.741Z,7.90
2018-04-02T20:02:24.795Z,10.68
2018-04-02T20:04:50.834Z,8.85
2018-04-02T20:07:16.882Z,9.20
2018-04-02T20:09:42.985Z,7.78
2018-04-02T20:12:09.051Z,7.85
2018-04-02T20:14:35.117Z,8.50
2018-04-02T20:17:01.204Z,9.13
2018-04-02T20:19:28.268Z,7.93
2018-04-02T20:21:54.427Z,9.05
2018-04-02T20:24:20.461Z,9.18
2018-04-02T20:26:46.559Z,9.95
2018-04-02T20:29:12.868Z,10.77
2018-04-02T20:31:38.975Z,10.32
2018-04-02T20:34:05.026Z,10.73
2018-04-02T20:36:31.067Z,12.98
2018-04-02T20:38:57.133Z,9.73
2018-04-02T20:41:30.304Z,11.75
2018-04-02T20:43:56.402Z,12.45
2018-04-02T20:46:22.618Z,15.65
2018-04-02T20:48:48.729Z,10.30
2018-04-02T20:51:14.846Z,11.20
2018-04-02T20:53:40.909Z,10.55
2018-04-02T20:56:06.953Z,13.25
2018-04-02T20:58:33.072Z,15.02
2018-04-02T21:00:59.253Z,10.20
2018-04-02T21:03:25.273Z,15.27
2018-04-02T21:05:51.498Z,12.25
2018-04-02T21:08:17.564Z,9.73
2018-04-02T21:10:43.602Z,9.63
2018-04-02T21:13:09.699Z,14.25
2018-04-02T21:15:35.927Z,10.68
2018-04-02T21:18:02.064Z,15.50
2018-04-02T21:20:28.078Z,11.15
2018-04-02T21:22:54.199Z,13.13
2018-04-02T21:25:20.306Z,13.23
2018-04-02T21:27:46.572Z,11.15
2018-04-02T21:30:12.650Z,11.10
2018-04-02T21:32:38.690Z,14.32
2018-04-02T21:35:04.723Z,12.35
2018-04-02T21:37:30.812Z,15.93
2018-04-02T21:39:57.113Z,12.88
2018-04-02T21:42:23.288Z,15.77
2018-04-02T21:44:49.300Z,14.70
2018-04-02T21:47:15.312Z,16.20
2018-04-02T21:49:41.330Z,19.00
2018-04-02T21:52:07.386Z,12.80
2018-04-02T21:54:33.437Z,19.45
2018-04-02T21:56:59.609Z,14.60
2018-04-02T21:59:25.644Z,17.00
2018-04-02T22:01:51.735Z,15.95
2018-04-02T22:04:17.940Z,23.77
2018-04-02T22:06:56.219Z,20.30
2018-04-02T22:09:22.282Z,25.15
2018-04-02T22:11:48.575Z,20.77
2018-04-02T22:14:14.638Z,29.10
2018-04-02T22:16:40.678Z,23.12
2018-04-02T22:19:06.814Z,21.45
2018-04-02T22:21:32.920Z,30.55
2018-04-02T22:23:58.957Z,21.30
2018-04-02T22:26:25.011Z,19.92
2018-04-02T22:28:51.053Z,20.42
2018-04-02T22:31:17.095Z,21.85
2018-04-02T22:33:43.153Z,20.95
2018-04-02T22:36:09.261Z,21.23
2018-04-02T22:38:35.388Z,22.42
2018-04-02T22:41:01.450Z,24.85
2018-04-02T22:43:28.017Z,21.62
2018-04-02T22:45:54.622Z,21.67
2018-04-02T22:48:20.718Z,26.90
2018-04-02T22:50:46.837Z,28.75
2018-04-02T22:53:12.903Z,23.60
2018-04-02T22:55:38.918Z,31.67
2018-04-02T22:58:04.983Z,23.95
2018-04-02T23:00:31.048Z,34.10
2018-04-02T23:02:57.097Z,22.80
2018-04-02T23:05:23.168Z,25.98
2018-04-02T23:07:49.219Z,22.20
2018-04-02T23:10:15.253Z,21.70
2018-04-02T23:12:41.312Z,21.42
2018-04-02T23:15:07.354Z,25.80
2018-04-02T23:17:33.443Z,23.00
2018-04-02T23:19:59.535Z,34.10
2018-04-02T23:22:37.886Z,22.67
2018-04-02T23:25:04.048Z,34.92
2018-04-02T23:27:30.254Z,26.45
2018-04-02T23:29:56.261Z,28.42
2018-04-02T23:32:22.405Z,34.45
2018-04-02T23:34:48.581Z,23.00
2018-04-02T23:37:14.677Z,31.10
2018-04-02T23:39:40.730Z,28.30
2018-04-02T23:42:06.722Z,27.10
2018-04-02T23:44:32.834Z,33.78
2018-04-02T23:46:58.925Z,27.40
2018-04-02T23:49:24.969Z,32.38
2018-04-02T23:51:50.967Z,36.42
2018-04-02T23:54:17.031Z,27.83
2018-04-02T23:56:43.133Z,30.23
2018-04-02T23:59:09.199Z,29.70
